sensor_id;sensor_type;location;lat;lon;timestamp;pressure;altitude;pressure_sealevel;temperature;humidity
64192;BME280;50497;50.720;-2.084;2023-03-23T00:02:30;100530.75;;;9.00;100.00
64192;BME280;50497;50.720;-2.084;2023-03-23T00:05:01;100501.25;;;8.83;100.00
64192;BME280;50497;50.720;-2.084;2023-03-23T00:07:28;100501.72;;;8.93;100.00
64192;BME280;50497;50.720;-2.084;2023-03-23T00:09:55;100508.88;;;8.92;100.00
64192;BME280;50497;50.720;-2.084;2023-03-23T00:12:24;100498.47;;;8.86;100.00
64192;BME280;50497;50.720;-2.084;2023-03-23T00:14:55;100461.00;;;8.68;100.00
64192;BME280;50497;50.720;-2.084;2023-03-23T00:17:20;100480.66;;;8.86;100.00
64192;BME280;50497;50.720;-2.084;2023-03-23T00:19:45;100475.53;;;8.82;100.00
64192;BME280;50497;50.720;-2.084;2023-03-23T00:22:15;100466.03;;;8.95;100.00
64192;BME280;50497;50.720;-2.084;2023-03-23T00:24:44;100418.81;;;8.97;100.00
64192;BME280;50497;50.720;-2.084;2023-03-23T00:27:09;100428.03;;;9.09;100.00
64192;BME280;50497;50.720;-2.084;2023-03-23T00:29:38;100422.41;;;8.96;100.00
64192;BME280;50497;50.720;-2.084;2023-03-23T00:32:04;100412.47;;;9.00;100.00
64192;BME280;50497;50.720;-2.084;2023-03-23T00:34:29;100445.22;;;9.22;100.00
64192;BME280;50497;50.720;-2.084;2023-03-23T00:36:58;100443.28;;;9.26;100.00
64192;BME280;50497;50.720;-2.084;2023-03-23T00:39:25;100447.31;;;9.16;100.00
64192;BME280;50497;50.720;-2.084;2023-03-23T00:41:52;100441.41;;;9.28;100.00
64192;BME280;50497;50.720;-2.084;2023-03-23T00:44:18;100446.50;;;9.33;100.00
64192;BME280;50497;50.720;-2.084;2023-03-23T00:46:44;100459.59;;;9.20;100.00
64192;BME280;50497;50.720;-2.084;2023-03-23T00:49:15;100450.47;;;9.05;100.00
64192;BME280;50497;50.720;-2.084;2023-03-23T00:51:44;100449.47;;;9.07;100.00
64192;BME280;50497;50.720;-2.084;2023-03-23T00:54:10;100488.06;;;9.19;100.00
64192;BME280;50497;50.720;-2.084;2023-03-23T00:56:37;100469.63;;;9.15;100.00
64192;BME280;50497;50.720;-2.084;2023-03-23T00:59:02;100458.34;;;9.08;100.00
64192;BME280;50497;50.720;-2.084;2023-03-23T01:01:29;100487.66;;;9.29;100.00
64192;BME280;50497;50.720;-2.084;2023-03-23T01:03:54;100486.75;;;9.09;100.00
64192;BME280;50497;50.720;-2.084;2023-03-23T01:06:27;100466.97;;;8.94;100.00
64192;BME280;50497;50.720;-2.084;2023-03-23T01:08:52;100479.06;;;9.22;100.00
64192;BME280;50497;50.720;-2.084;2023-03-23T01:11:19;100484.28;;;9.25;100.00
64192;BME280;50497;50.720;-2.084;2023-03-23T01:13:45;100464.63;;;9.26;100.00
64192;BME280;50497;50.720;-2.084;2023-03-23T01:16:10;100465.44;;;9.28;100.00
64192;BME280;50497;50.720;-2.084;2023-03-23T01:18:37;100472.56;;;9.28;100.00
64192;BME280;50497;50.720;-2.084;2023-03-23T01:21:07;100439.56;;;9.10;100.00
64192;BME280;50497;50.720;-2.084;2023-03-23T01:23:34;100467.09;;;9.31;100.00
64192;BME280;50497;50.720;-2.084;2023-03-23T01:26:04;100453.03;;;9.27;100.00
64192;BME280;50497;50.720;-2.084;2023-03-23T01:28:34;100457.25;;;9.31;100.00
64192;BME280;50497;50.720;-2.084;2023-03-23T01:31:06;100461.69;;;9.32;100.00
64192;BME280;50497;50.720;-2.084;2023-03-23T01:33:35;100463.84;;;9.24;100.00
64192;BME280;50497;50.720;-2.084;2023-03-23T01:36:05;100418.91;;;9.15;100.00
64192;BME280;50497;50.720;-2.084;2023-03-23T01:38:32;100462.78;;;9.28;100.00
64192;BME280;50497;50.720;-2.084;2023-03-23T01:40:58;100453.88;;;9.28;100.00
64192;BME280;50497;50.720;-2.084;2023-03-23T01:43:23;100461.81;;;9.29;100.00
64192;BME280;50497;50.720;-2.084;2023-03-23T01:45:48;100463.84;;;9.24;100.00
64192;BME280;50497;50.720;-2.084;2023-03-23T01:48:18;100460.97;;;9.29;100.00
64192;BME280;50497;50.720;-2.084;2023-03-23T01:51:05;100439.56;;;9.10;100.00
64192;BME280;50497;50.720;-2.084;2023-03-23T01:53:46;100465.13;;;9.34;100.00
64192;BME280;50497;50.720;-2.084;2023-03-23T01:56:16;100457.38;;;9.30;100.00
64192;BME280;50497;50.720;-2.084;2023-03-23T01:58:44;100440.16;;;9.16;100.00
64192;BME280;50497;50.720;-2.084;2023-03-23T02:01:13;100434.75;;;9.18;100.00
64192;BME280;50497;50.720;-2.084;2023-03-23T02:03:43;100435.25;;;9.26;100.00
64192;BME280;50497;50.720;-2.084;2023-03-23T02:06:09;100462.69;;;9.49;100.00
64192;BME280;50497;50.720;-2.084;2023-03-23T02:08:35;100461.09;;;9.44;100.00
64192;BME280;50497;50.720;-2.084;2023-03-23T02:11:11;100461.41;;;9.38;100.00
64192;BME280;50497;50.720;-2.084;2023-03-23T02:13:37;100462.41;;;9.36;100.00
64192;BME280;50497;50.720;-2.084;2023-03-23T02:18:51;100446.38;;;9.17;100.00
64192;BME280;50497;50.720;-2.084;2023-03-23T02:29:50;100457.06;;;9.36;100.00
64192;BME280;50497;50.720;-2.084;2023-03-23T02:32:46;100458.72;;;9.38;100.00
64192;BME280;50497;50.720;-2.084;2023-03-23T02:35:35;100465.84;;;9.38;100.00
64192;BME280;50497;50.720;-2.084;2023-03-23T02:41:25;100437.41;;;9.18;100.00
64192;BME280;50497;50.720;-2.084;2023-03-23T02:43:52;100433.50;;;9.06;100.00
64192;BME280;50497;50.720;-2.084;2023-03-23T02:46:19;100440.09;;;8.99;100.00
64192;BME280;50497;50.720;-2.084;2023-03-23T02:48:46;100453.22;;;9.03;100.00
64192;BME280;50497;50.720;-2.084;2023-03-23T02:51:18;100466.91;;;8.96;100.00
64192;BME280;50497;50.720;-2.084;2023-03-23T02:53:45;100422.25;;;8.80;100.00
64192;BME280;50497;50.720;-2.084;2023-03-23T02:56:13;100440.13;;;8.78;100.00
64192;BME280;50497;50.720;-2.084;2023-03-23T02:58:39;100425.25;;;8.73;100.00
64192;BME280;50497;50.720;-2.084;2023-03-23T03:04:13;100467.09;;;8.91;100.00
64192;BME280;50497;50.720;-2.084;2023-03-23T03:11:57;100466.91;;;8.96;100.00
64192;BME280;50497;50.720;-2.084;2023-03-23T03:14:40;100463.91;;;9.03;100.00
64192;BME280;50497;50.720;-2.084;2023-03-23T03:17:35;100464.31;;;8.94;100.00
64192;BME280;50497;50.720;-2.084;2023-03-23T03:20:06;100468.56;;;8.98;100.00
64192;BME280;50497;50.720;-2.084;2023-03-23T03:22:37;100457.50;;;8.87;100.00
64192;BME280;50497;50.720;-2.084;2023-03-23T03:25:05;100448.66;;;8.86;100.00
64192;BME280;50497;50.720;-2.084;2023-03-23T03:27:32;100445.75;;;8.91;100.00
64192;BME280;50497;50.720;-2.084;2023-03-23T03:30:02;100442.16;;;8.92;100.00
64192;BME280;50497;50.720;-2.084;2023-03-23T03:32:34;100453.09;;;8.86;100.00
64192;BME280;50497;50.720;-2.084;2023-03-23T03:35:01;100460.44;;;8.81;100.00
64192;BME280;50497;50.720;-2.084;2023-03-23T03:37:34;100456.72;;;8.85;100.00
64192;BME280;50497;50.720;-2.084;2023-03-23T03:40:03;100435.78;;;8.76;100.00
64192;BME280;50497;50.720;-2.084;2023-03-23T03:42:29;100447.63;;;8.89;100.00
64192;BME280;50497;50.720;-2.084;2023-03-23T03:44:55;100423.22;;;8.78;100.00
64192;BME280;50497;50.720;-2.084;2023-03-23T03:47:24;100446.47;;;8.95;100.00
64192;BME280;50497;50.720;-2.084;2023-03-23T03:49:49;100456.63;;;9.07;100.00
64192;BME280;50497;50.720;-2.084;2023-03-23T03:52:15;100428.47;;;9.00;100.00
64192;BME280;50497;50.720;-2.084;2023-03-23T03:54:40;100468.19;;;9.27;100.00
64192;BME280;50497;50.720;-2.084;2023-03-23T03:57:06;100460.97;;;9.29;100.00
64192;BME280;50497;50.720;-2.084;2023-03-23T03:59:31;100462.09;;;9.23;100.00
64192;BME280;50497;50.720;-2.084;2023-03-23T04:01:58;100452.88;;;9.30;100.00
64192;BME280;50497;50.720;-2.084;2023-03-23T04:04:23;100474.53;;;9.43;100.00
64192;BME280;50497;50.720;-2.084;2023-03-23T04:06:49;100471.63;;;9.48;100.00
64192;BME280;50497;50.720;-2.084;2023-03-23T04:09:14;100444.66;;;9.35;100.00
64192;BME280;50497;50.720;-2.084;2023-03-23T04:11:40;100482.03;;;9.54;100.00
64192;BME280;50497;50.720;-2.084;2023-03-23T04:14:06;100452.59;;;9.36;100.00
64192;BME280;50497;50.720;-2.084;2023-03-23T04:16:31;100483.63;;;9.58;100.00
64192;BME280;50497;50.720;-2.084;2023-03-23T04:19:00;100469.31;;;9.59;100.00
64192;BME280;50497;50.720;-2.084;2023-03-23T04:21:26;100477.41;;;9.57;100.00
64192;BME280;50497;50.720;-2.084;2023-03-23T04:23:54;100466.88;;;9.54;100.00
64192;BME280;50497;50.720;-2.084;2023-03-23T04:26:19;100487.03;;;9.61;100.00
64192;BME280;50497;50.720;-2.084;2023-03-23T04:28:45;100492.13;;;9.66;100.00
64192;BME280;50497;50.720;-2.084;2023-03-23T04:31:10;100488.38;;;9.70;100.00
64192;BME280;50497;50.720;-2.084;2023-03-23T04:33:38;100472.06;;;9.57;100.00
64192;BME280;50497;50.720;-2.084;2023-03-23T04:36:05;100491.84;;;9.72;100.00
64192;BME280;50497;50.720;-2.084;2023-03-23T04:38:32;100469.78;;;9.50;100.00
64192;BME280;50497;50.720;-2.084;2023-03-23T04:41:00;100467.59;;;9.58;100.00
64192;BME280;50497;50.720;-2.084;2023-03-23T04:43:27;100490.28;;;9.68;100.00
64192;BME280;50497;50.720;-2.084;2023-03-23T04:46:00;100500.00;;;9.69;100.00
64192;BME280;50497;50.720;-2.084;2023-03-23T04:48:29;100503.47;;;9.71;100.00
64192;BME280;50497;50.720;-2.084;2023-03-23T04:50:56;100508.81;;;9.71;100.00
64192;BME280;50497;50.720;-2.084;2023-03-23T04:53:24;100501.22;;;9.62;100.00
64192;BME280;50497;50.720;-2.084;2023-03-23T04:55:50;100509.09;;;9.65;100.00
64192;BME280;50497;50.720;-2.084;2023-03-23T04:58:16;100502.97;;;9.63;100.00
64192;BME280;50497;50.720;-2.084;2023-03-23T05:00:41;100488.09;;;9.57;100.00
64192;BME280;50497;50.720;-2.084;2023-03-23T05:03:10;100503.75;;;9.65;100.00
64192;BME280;50497;50.720;-2.084;2023-03-23T05:05:35;100489.41;;;9.49;100.00
64192;BME280;50497;50.720;-2.084;2023-03-23T05:08:01;100493.56;;;9.54;100.00
64192;BME280;50497;50.720;-2.084;2023-03-23T05:10:27;100476.19;;;9.46;100.00
64192;BME280;50497;50.720;-2.084;2023-03-23T05:12:53;100495.75;;;9.65;100.00
64192;BME280;50497;50.720;-2.084;2023-03-23T05:15:19;100472.72;;;9.43;100.00
64192;BME280;50497;50.720;-2.084;2023-03-23T05:17:44;100493.22;;;9.62;100.00
64192;BME280;50497;50.720;-2.084;2023-03-23T05:20:12;100501.22;;;9.62;100.00
64192;BME280;50497;50.720;-2.084;2023-03-23T05:22:41;100494.59;;;9.52;100.00
64192;BME280;50497;50.720;-2.084;2023-03-23T05:25:13;100513.66;;;9.63;100.00
64192;BME280;50497;50.720;-2.084;2023-03-23T05:27:39;100495.97;;;9.60;100.00
64192;BME280;50497;50.720;-2.084;2023-03-23T05:30:08;100506.44;;;9.65;100.00
64192;BME280;50497;50.720;-2.084;2023-03-23T05:32:36;100494.31;;;9.58;100.00
64192;BME280;50497;50.720;-2.084;2023-03-23T05:35:03;100511.78;;;9.65;100.00
64192;BME280;50497;50.720;-2.084;2023-03-23T05:37:28;100503.69;;;9.67;100.00
64192;BME280;50497;50.720;-2.084;2023-03-23T05:39:58;100474.09;;;9.52;100.00
64192;BME280;50497;50.720;-2.084;2023-03-23T05:42:27;100495.88;;;9.62;100.00
64192;BME280;50497;50.720;-2.084;2023-03-23T05:44:56;100470.91;;;9.44;100.00
64192;BME280;50497;50.720;-2.084;2023-03-23T05:47:23;100468.75;;;9.52;100.00
64192;BME280;50497;50.720;-2.084;2023-03-23T05:49:48;100515.03;;;9.72;100.00
64192;BME280;50497;50.720;-2.084;2023-03-23T05:52:19;100507.94;;;9.71;100.00
64192;BME280;50497;50.720;-2.084;2023-03-23T05:54:46;100506.09;;;9.73;100.00
64192;BME280;50497;50.720;-2.084;2023-03-23T05:57:15;100473.16;;;9.53;100.00
64192;BME280;50497;50.720;-2.084;2023-03-23T05:59:41;100505.84;;;9.77;100.00
64192;BME280;50497;50.720;-2.084;2023-03-23T06:02:06;100498.13;;;9.71;100.00
64192;BME280;50497;50.720;-2.084;2023-03-23T06:04:32;100502.03;;;9.83;100.00
64192;BME280;50497;50.720;-2.084;2023-03-23T06:07:01;100495.00;;;9.80;100.00
64192;BME280;50497;50.720;-2.084;2023-03-23T06:09:31;100498.38;;;9.84;100.00
64192;BME280;50497;50.720;-2.084;2023-03-23T06:12:00;100492.13;;;9.85;100.00
64192;BME280;50497;50.720;-2.084;2023-03-23T06:14:27;100487.94;;;9.79;100.00
64192;BME280;50497;50.720;-2.084;2023-03-23T06:16:58;100482.91;;;9.73;100.00
64192;BME280;50497;50.720;-2.084;2023-03-23T06:19:26;100494.44;;;9.74;100.00
64192;BME280;50497;50.720;-2.084;2023-03-23T06:21:54;100492.13;;;9.66;100.00
64192;BME280;50497;50.720;-2.084;2023-03-23T06:24:20;100487.59;;;9.68;100.00
64192;BME280;50497;50.720;-2.084;2023-03-23T06:26:46;100492.88;;;9.70;100.00
64192;BME280;50497;50.720;-2.084;2023-03-23T06:29:13;100469.78;;;9.50;100.00
64192;BME280;50497;50.720;-2.084;2023-03-23T06:31:48;100500.88;;;9.70;100.00
64192;BME280;50497;50.720;-2.084;2023-03-23T06:34:21;100497.56;;;9.65;100.00
64192;BME280;50497;50.720;-2.084;2023-03-23T06:36:50;100511.78;;;9.65;100.00
64192;BME280;50497;50.720;-2.084;2023-03-23T06:39:21;100504.69;;;9.64;100.00
64192;BME280;50497;50.720;-2.084;2023-03-23T06:41:51;100509.59;;;9.73;100.00
64192;BME280;50497;50.720;-2.084;2023-03-23T06:44:19;100513.78;;;9.79;100.00
64192;BME280;50497;50.720;-2.084;2023-03-23T06:46:45;100478.69;;;9.68;100.00
64192;BME280;50497;50.720;-2.084;2023-03-23T06:49:10;100510.25;;;9.78;100.00
64192;BME280;50497;50.720;-2.084;2023-03-23T06:51:36;100514.13;;;9.90;100.00
64192;BME280;50497;50.720;-2.084;2023-03-23T06:54:03;100516.09;;;9.87;100.00
64192;BME280;50497;50.720;-2.084;2023-03-23T06:56:28;100500.34;;;9.80;100.00
64192;BME280;50497;50.720;-2.084;2023-03-23T06:58:55;100512.31;;;9.91;100.00
64192;BME280;50497;50.720;-2.084;2023-03-23T07:01:21;100519.63;;;9.87;100.00
64192;BME280;50497;50.720;-2.084;2023-03-23T07:03:47;100489.75;;;9.60;100.00
64192;BME280;50497;50.720;-2.084;2023-03-23T07:06:14;100490.81;;;9.56;100.00
64192;BME280;50497;50.720;-2.084;2023-03-23T07:08:40;100532.41;;;9.80;100.00
64192;BME280;50497;50.720;-2.084;2023-03-23T07:11:06;100542.25;;;9.80;100.00
64192;BME280;50497;50.720;-2.084;2023-03-23T07:13:35;100540.78;;;9.92;100.00
64192;BME280;50497;50.720;-2.084;2023-03-23T07:16:04;100546.13;;;9.92;100.00
64192;BME280;50497;50.720;-2.084;2023-03-23T07:18:35;100547.06;;;9.91;100.00
64192;BME280;50497;50.720;-2.084;2023-03-23T07:21:05;100521.72;;;9.80;100.00
64192;BME280;50497;50.720;-2.084;2023-03-23T07:23:35;100545.72;;;10.01;100.00
64192;BME280;50497;50.720;-2.084;2023-03-23T07:26:05;100547.56;;;9.99;100.00
64192;BME280;50497;50.720;-2.084;2023-03-23T07:28:35;100545.72;;;10.01;100.00
64192;BME280;50497;50.720;-2.084;2023-03-23T07:31:01;100536.72;;;10.02;100.00
64192;BME280;50497;50.720;-2.084;2023-03-23T07:33:32;100529.28;;;10.09;100.00
64192;BME280;50497;50.720;-2.084;2023-03-23T07:36:02;100519.28;;;10.12;100.00
64192;BME280;50497;50.720;-2.084;2023-03-23T07:38:31;100501.69;;;10.26;100.00
64192;BME280;50497;50.720;-2.084;2023-03-23T07:40:56;100489.66;;;10.17;100.00
64192;BME280;50497;50.720;-2.084;2023-03-23T07:43:24;100517.59;;;10.29;100.00
64192;BME280;50497;50.720;-2.084;2023-03-23T07:45:50;100477.78;;;10.05;100.00
64192;BME280;50497;50.720;-2.084;2023-03-23T07:48:19;100530.56;;;10.38;100.00
64192;BME280;50497;50.720;-2.084;2023-03-23T07:50:45;100516.88;;;10.44;100.00
64192;BME280;50497;50.720;-2.084;2023-03-23T07:53:12;100522.38;;;10.41;100.00
64192;BME280;50497;50.720;-2.084;2023-03-23T07:55:38;100530.63;;;10.54;100.00
64192;BME280;50497;50.720;-2.084;2023-03-23T07:58:04;100521.44;;;10.60;100.00
64192;BME280;50497;50.720;-2.084;2023-03-23T08:00:34;100519.41;;;10.65;100.00
64192;BME280;50497;50.720;-2.084;2023-03-23T08:03:01;100505.31;;;10.61;100.00
64192;BME280;50497;50.720;-2.084;2023-03-23T08:05:28;100520.34;;;10.81;100.00
64192;BME280;50497;50.720;-2.084;2023-03-23T08:07:56;100504.59;;;10.75;100.00
64192;BME280;50497;50.720;-2.084;2023-03-23T08:10:23;100526.72;;;10.96;100.00
64192;BME280;50497;50.720;-2.084;2023-03-23T08:12:54;100527.66;;;10.95;100.00
64192;BME280;50497;50.720;-2.084;2023-03-23T08:15:21;100524.94;;;11.13;100.00
64192;BME280;50497;50.720;-2.084;2023-03-23T08:17:47;100510.81;;;11.26;100.00
64192;BME280;50497;50.720;-2.084;2023-03-23T08:20:13;100552.03;;;11.57;100.00
64192;BME280;50497;50.720;-2.084;2023-03-23T08:22:40;100547.13;;;11.65;100.00
64192;BME280;50497;50.720;-2.084;2023-03-23T08:25:08;100557.31;;;11.75;100.00
64192;BME280;50497;50.720;-2.084;2023-03-23T08:27:34;100561.41;;;11.98;100.00
64192;BME280;50497;50.720;-2.084;2023-03-23T08:29:59;100550.63;;;11.99;100.00
64192;BME280;50497;50.720;-2.084;2023-03-23T08:32:25;100555.91;;;12.17;100.00
64192;BME280;50497;50.720;-2.084;2023-03-23T08:34:51;100528.94;;;12.34;100.00
64192;BME280;50497;50.720;-2.084;2023-03-23T08:37:17;100550.75;;;12.28;100.00
64192;BME280;50497;50.720;-2.084;2023-03-23T08:39:42;100515.03;;;11.64;100.00
64192;BME280;50497;50.720;-2.084;2023-03-23T08:42:10;100530.59;;;11.89;100.00
64192;BME280;50497;50.720;-2.084;2023-03-23T08:44:39;100510.63;;;11.79;100.00
64192;BME280;50497;50.720;-2.084;2023-03-23T08:47:05;100510.03;;;11.74;100.00
64192;BME280;50497;50.720;-2.084;2023-03-23T08:49:31;100480.19;;;11.80;100.00
64192;BME280;50497;50.720;-2.084;2023-03-23T08:52:01;100504.13;;;11.83;100.00
64192;BME280;50497;50.720;-2.084;2023-03-23T08:54:26;100493.97;;;12.06;100.00
64192;BME280;50497;50.720;-2.084;2023-03-23T08:56:52;100486.50;;;12.11;100.00
64192;BME280;50497;50.720;-2.084;2023-03-23T08:59:22;100465.25;;;11.76;100.00
64192;BME280;50497;50.720;-2.084;2023-03-23T09:01:48;100482.22;;;12.38;100.00
64192;BME280;50497;50.720;-2.084;2023-03-23T09:04:14;100474.28;;;12.21;100.00
64192;BME280;50497;50.720;-2.084;2023-03-23T09:06:39;100467.69;;;12.27;100.00
64192;BME280;50497;50.720;-2.084;2023-03-23T09:09:08;100444.75;;;12.37;100.00
64192;BME280;50497;50.720;-2.084;2023-03-23T09:11:35;100483.84;;;12.41;100.00
64192;BME280;50497;50.720;-2.084;2023-03-23T09:14:02;100471.00;;;12.46;100.00
64192;BME280;50497;50.720;-2.084;2023-03-23T09:16:28;100457.28;;;12.67;100.00
64192;BME280;50497;50.720;-2.084;2023-03-23T09:18:54;100457.69;;;12.89;100.00
64192;BME280;50497;50.720;-2.084;2023-03-23T09:21:23;100481.28;;;13.56;100.00
64192;BME280;50497;50.720;-2.084;2023-03-23T09:23:49;100477.25;;;12.91;100.00
64192;BME280;50497;50.720;-2.084;2023-03-23T09:26:14;100451.09;;;12.95;100.00
64192;BME280;50497;50.720;-2.084;2023-03-23T09:28:40;100452.31;;;13.04;100.00
64192;BME280;50497;50.720;-2.084;2023-03-23T09:31:06;100447.13;;;12.86;100.00
64192;BME280;50497;50.720;-2.084;2023-03-23T09:33:31;100451.56;;;13.02;100.00
64192;BME280;50497;50.720;-2.084;2023-03-23T09:36:00;100453.19;;;13.04;100.00
64192;BME280;50497;50.720;-2.084;2023-03-23T09:38:30;100445.03;;;13.20;100.00
64192;BME280;50497;50.720;-2.084;2023-03-23T09:44:27;100426.72;;;13.83;100.00
64192;BME280;50497;50.720;-2.084;2023-03-23T09:49:55;100479.53;;;14.11;100.00
64192;BME280;50497;50.720;-2.084;2023-03-23T09:52:30;100458.06;;;14.37;100.00
64192;BME280;50497;50.720;-2.084;2023-03-23T09:54:58;100435.78;;;14.35;100.00
64192;BME280;50497;50.720;-2.084;2023-03-23T09:57:30;100440.53;;;13.91;100.00
64192;BME280;50497;50.720;-2.084;2023-03-23T10:02:40;100394.13;;;13.60;100.00
64192;BME280;50497;50.720;-2.084;2023-03-23T10:05:33;100423.59;;;13.62;100.00
64192;BME280;50497;50.720;-2.084;2023-03-23T10:08:02;100421.03;;;13.46;100.00
64192;BME280;50497;50.720;-2.084;2023-03-23T10:16:06;100446.53;;;14.75;100.00
64192;BME280;50497;50.720;-2.084;2023-03-23T10:19:55;100463.31;;;14.26;100.00
64192;BME280;50497;50.720;-2.084;2023-03-23T10:21:50;100452.00;;;14.60;100.00
64192;BME280;50497;50.720;-2.084;2023-03-23T10:24:23;100426.09;;;14.19;100.00
64192;BME280;50497;50.720;-2.084;2023-03-23T10:29:36;100442.16;;;13.38;100.00
64192;BME280;50497;50.720;-2.084;2023-03-23T10:32:14;100445.88;;;13.21;100.00
64192;BME280;50497;50.720;-2.084;2023-03-23T10:34:53;100437.25;;;12.72;100.00
64192;BME280;50497;50.720;-2.084;2023-03-23T10:39:57;100450.78;;;13.43;100.00
64192;BME280;50497;50.720;-2.084;2023-03-23T10:42:28;100451.91;;;14.22;100.00
64192;BME280;50497;50.720;-2.084;2023-03-23T10:45:00;100471.84;;;14.59;100.00
64192;BME280;50497;50.720;-2.084;2023-03-23T10:47:36;100471.75;;;14.87;100.00
64192;BME280;50497;50.720;-2.084;2023-03-23T10:50:04;100494.72;;;15.18;100.00
64192;BME280;50497;50.720;-2.084;2023-03-23T10:52:42;100483.34;;;14.21;100.00
64192;BME280;50497;50.720;-2.084;2023-03-23T10:55:13;100451.19;;;14.05;100.00
64192;BME280;50497;50.720;-2.084;2023-03-23T10:57:44;100489.09;;;14.70;100.00
64192;BME280;50497;50.720;-2.084;2023-03-23T11:02:45;100453.97;;;14.97;100.00
64192;BME280;50497;50.720;-2.084;2023-03-23T11:05:23;100422.06;;;15.04;100.00
64192;BME280;50497;50.720;-2.084;2023-03-23T11:07:56;100449.63;;;15.46;100.00
64192;BME280;50497;50.720;-2.084;2023-03-23T11:10:25;100389.06;;;14.49;100.00
64192;BME280;50497;50.720;-2.084;2023-03-23T11:12:51;100430.56;;;14.59;100.00
64192;BME280;50497;50.720;-2.084;2023-03-23T11:15:36;100392.75;;;14.35;100.00
64192;BME280;50497;50.720;-2.084;2023-03-23T11:18:10;100426.13;;;14.58;100.00
64192;BME280;50497;50.720;-2.084;2023-03-23T11:20:44;100430.31;;;14.49;100.00
64192;BME280;50497;50.720;-2.084;2023-03-23T11:23:22;100408.63;;;14.65;100.00
64192;BME280;50497;50.720;-2.084;2023-03-23T11:28:38;100400.97;;;14.59;100.00
64192;BME280;50497;50.720;-2.084;2023-03-23T11:31:07;100411.09;;;14.81;100.00
64192;BME280;50497;50.720;-2.084;2023-03-23T11:36:19;100381.38;;;15.69;100.00
64192;BME280;50497;50.720;-2.084;2023-03-23T11:38:45;100368.94;;;16.51;100.00
64192;BME280;50497;50.720;-2.084;2023-03-23T11:41:12;100344.72;;;16.38;100.00
64192;BME280;50497;50.720;-2.084;2023-03-23T11:43:45;100336.41;;;16.52;100.00
64192;BME280;50497;50.720;-2.084;2023-03-23T11:46:22;100342.22;;;16.93;100.00
64192;BME280;50497;50.720;-2.084;2023-03-23T11:49:00;100305.06;;;17.61;100.00
64192;BME280;50497;50.720;-2.084;2023-03-23T11:56:40;100286.72;;;17.32;100.00
64192;BME280;50497;50.720;-2.084;2023-03-23T11:59:33;100273.19;;;16.32;100.00
64192;BME280;50497;50.720;-2.084;2023-03-23T12:08:06;100310.78;;;15.51;100.00
64192;BME280;50497;50.720;-2.084;2023-03-23T12:16:17;100287.78;;;16.41;100.00
64192;BME280;50497;50.720;-2.084;2023-03-23T12:21:41;100302.63;;;15.16;100.00
64192;BME280;50497;50.720;-2.084;2023-03-23T12:26:44;100283.78;;;15.16;100.00
64192;BME280;50497;50.720;-2.084;2023-03-23T12:34:39;100274.50;;;15.07;100.00
64192;BME280;50497;50.720;-2.084;2023-03-23T12:43:04;100285.47;;;15.65;100.00
64192;BME280;50497;50.720;-2.084;2023-03-23T12:48:40;100262.22;;;15.16;100.00
64192;BME280;50497;50.720;-2.084;2023-03-23T12:51:14;100273.00;;;15.16;100.00
64192;BME280;50497;50.720;-2.084;2023-03-23T12:54:16;100255.53;;;15.09;100.00
64192;BME280;50497;50.720;-2.084;2023-03-23T12:56:53;100264.41;;;14.35;100.00
64192;BME280;50497;50.720;-2.084;2023-03-23T13:02:16;100256.97;;;13.75;100.00
64192;BME280;50497;50.720;-2.084;2023-03-23T13:05:28;100252.56;;;13.86;100.00
64192;BME280;50497;50.720;-2.084;2023-03-23T13:08:06;100248.28;;;13.44;100.00
64192;BME280;50497;50.720;-2.084;2023-03-23T13:10:45;100254.56;;;13.57;100.00
64192;BME280;50497;50.720;-2.084;2023-03-23T13:13:24;100244.63;;;12.76;100.00
64192;BME280;50497;50.720;-2.084;2023-03-23T13:16:08;100248.72;;;12.96;100.00
64192;BME280;50497;50.720;-2.084;2023-03-23T13:19:27;100237.44;;;12.76;100.00
64192;BME280;50497;50.720;-2.084;2023-03-23T13:21:57;100216.22;;;12.59;100.00
64192;BME280;50497;50.720;-2.084;2023-03-23T13:24:26;100228.44;;;12.63;100.00
64192;BME280;50497;50.720;-2.084;2023-03-23T13:26:53;100217.09;;;12.45;100.00
64192;BME280;50497;50.720;-2.084;2023-03-23T13:29:23;100218.34;;;12.39;100.00
64192;BME280;50497;50.720;-2.084;2023-03-23T13:31:51;100203.78;;;12.15;100.00
64192;BME280;50497;50.720;-2.084;2023-03-23T13:34:29;100206.84;;;11.94;100.00
64192;BME280;50497;50.720;-2.084;2023-03-23T13:37:01;100178.84;;;11.70;100.00
64192;BME280;50497;50.720;-2.084;2023-03-23T13:39:56;100216.00;;;11.76;100.00
64192;BME280;50497;50.720;-2.084;2023-03-23T13:42:29;100226.75;;;11.60;100.00
64192;BME280;50497;50.720;-2.084;2023-03-23T13:47:41;100222.09;;;11.78;100.00
64192;BME280;50497;50.720;-2.084;2023-03-23T14:03:16;100253.03;;;11.39;100.00
64192;BME280;50497;50.720;-2.084;2023-03-23T14:06:11;100248.16;;;11.45;100.00
64192;BME280;50497;50.720;-2.084;2023-03-23T14:08:43;100244.94;;;11.24;100.00
64192;BME280;50497;50.720;-2.084;2023-03-23T14:11:44;100237.31;;;11.33;100.00
64192;BME280;50497;50.720;-2.084;2023-03-23T14:14:32;100212.28;;;11.18;100.00
64192;BME280;50497;50.720;-2.084;2023-03-23T14:17:17;100234.38;;;11.37;100.00
64192;BME280;50497;50.720;-2.084;2023-03-23T14:19:49;100230.72;;;11.38;100.00
64192;BME280;50497;50.720;-2.084;2023-03-23T14:22:36;100253.47;;;11.31;100.00
64192;BME280;50497;50.720;-2.084;2023-03-23T14:25:16;100257.97;;;11.15;100.00
64192;BME280;50497;50.720;-2.084;2023-03-23T14:27:46;100263.66;;;11.24;100.00
64192;BME280;50497;50.720;-2.084;2023-03-23T14:30:19;100233.91;;;10.83;100.00
64192;BME280;50497;50.720;-2.084;2023-03-23T14:32:49;100273.88;;;10.70;100.00
64192;BME280;50497;50.720;-2.084;2023-03-23T14:35:42;100275.50;;;10.88;100.00
64192;BME280;50497;50.720;-2.084;2023-03-23T14:38:21;100272.59;;;10.93;100.00